createdAt,value
2019-04-21T00:01:57.834Z,45.61
2019-04-21T00:04:40.804Z,45.56
2019-04-21T00:07:33.118Z,45.65
2019-04-21T00:09:56.408Z,45.74
2019-04-21T00:12:18.255Z,45.93
2019-04-21T00:14:43.600Z,45.83
2019-04-21T00:17:09.101Z,46.02
2019-04-21T00:19:43.000Z,45.89
2019-04-21T00:22:22.910Z,45.96
2019-04-21T00:24:58.391Z,46.02
2019-04-21T00:27:28.587Z,46.16
2019-04-21T00:30:09.182Z,46.24
2019-04-21T00:32:29.208Z,46.13
2019-04-21T00:34:51.240Z,46.32
2019-04-21T00:37:25.718Z,46.30
2019-04-21T00:40:03.699Z,46.55
2019-04-21T00:42:34.220Z,46.50
2019-04-21T00:45:03.470Z,46.45
2019-04-21T00:47:34.522Z,46.44
2019-04-21T00:50:05.050Z,46.46
2019-04-21T00:52:52.550Z,46.43
2019-04-21T00:55:31.266Z,46.60
2019-04-21T00:57:57.137Z,46.32
2019-04-21T01:00:23.320Z,46.40
2019-04-21T01:02:56.475Z,46.53
2019-04-21T01:05:33.823Z,46.40
2019-04-21T01:07:50.660Z,46.42
2019-04-21T01:10:17.456Z,46.31
2019-04-21T01:12:57.700Z,46.36
2019-04-21T01:15:37.110Z,46.54
2019-04-21T01:17:57.753Z,46.57
2019-04-21T01:20:16.978Z,46.58
2019-04-21T01:22:40.248Z,46.80
2019-04-21T01:25:20.362Z,46.65
2019-04-21T01:27:53.832Z,47.03
2019-04-21T01:30:34.668Z,46.93
2019-04-21T01:33:07.650Z,47.02
2019-04-21T01:35:36.666Z,47.08
2019-04-21T01:38:07.168Z,47.09
2019-04-21T01:40:42.623Z,47.28
2019-04-21T01:43:07.599Z,47.31
2019-04-21T01:45:40.111Z,47.25
2019-04-21T01:48:01.178Z,47.48
2019-04-21T01:50:36.329Z,47.39
2019-04-21T01:53:24.364Z,47.41
2019-04-21T01:55:54.227Z,47.45
2019-04-21T01:58:19.515Z,47.33
2019-04-21T02:00:51.887Z,47.64
2019-04-21T02:06:09.743Z,47.44
2019-04-21T02:08:28.769Z,47.57
2019-04-21T02:11:05.265Z,47.49
2019-04-21T02:13:28.214Z,47.66
2019-04-21T02:18:29.197Z,47.88
2019-04-21T02:20:50.134Z,47.87
2019-04-21T02:23:38.045Z,48.10
2019-04-21T02:26:03.339Z,48.17
2019-04-21T02:28:42.484Z,48.32
2019-04-21T02:31:20.608Z,48.45
2019-04-21T02:33:50.715Z,48.66
2019-04-21T02:38:50.280Z,48.78
2019-04-21T02:41:18.203Z,48.90
2019-04-21T02:43:50.041Z,48.93
2019-04-21T02:46:22.303Z,49.07
2019-04-21T02:48:56.456Z,49.28
2019-04-21T02:51:23.775Z,49.31
2019-04-21T02:56:20.436Z,49.47
2019-04-21T03:04:13.644Z,49.73
2019-04-21T03:07:07.323Z,49.82
2019-04-21T03:09:32.179Z,50.07
2019-04-21T03:12:08.648Z,50.34
2019-04-21T03:14:43.512Z,50.38
2019-04-21T03:17:03.459Z,50.35
2019-04-21T03:19:36.203Z,50.46
2019-04-21T03:22:05.216Z,50.56
2019-04-21T03:24:29.470Z,50.86
2019-04-21T03:27:09.692Z,50.99
2019-04-21T03:29:48.262Z,50.92
2019-04-21T03:39:29.531Z,51.57
2019-04-21T03:42:07.287Z,51.67
2019-04-21T03:44:32.368Z,52.04
2019-04-21T03:47:08.831Z,52.01
2019-04-21T03:49:40.716Z,52.09
2019-04-21T03:54:41.926Z,52.51
2019-04-21T03:59:38.046Z,52.76
2019-04-21T04:02:16.592Z,53.48
2019-04-21T04:04:47.568Z,53.40
2019-04-21T04:07:42.525Z,53.70
2019-04-21T04:12:35.077Z,54.31
2019-04-21T04:15:00.981Z,54.50
2019-04-21T04:17:40.737Z,54.57
2019-04-21T04:20:03.965Z,54.93
2019-04-21T04:22:45.573Z,54.95
2019-04-21T04:27:53.104Z,55.67
2019-04-21T04:30:12.497Z,55.82
2019-04-21T04:32:48.275Z,56.48
2019-04-21T04:35:15.375Z,55.85
2019-04-21T04:37:46.941Z,56.41
2019-04-21T04:40:13.377Z,55.95
2019-04-21T04:45:25.733Z,56.25
2019-04-21T04:47:53.081Z,56.36
2019-04-21T04:52:48.792Z,56.26
2019-04-21T04:55:23.626Z,56.32
2019-04-21T05:00:25.743Z,55.93
2019-04-21T05:02:48.375Z,55.83
2019-04-21T05:08:01.640Z,55.73
2019-04-21T05:10:17.321Z,56.07
2019-04-21T05:12:46.109Z,55.72
2019-04-21T05:17:54.799Z,55.53
2019-04-21T05:22:47.288Z,55.23
2019-04-21T05:25:08.612Z,55.38
2019-04-21T05:27:45.173Z,54.97
2019-04-21T05:30:28.642Z,54.73
2019-04-21T05:32:52.529Z,54.28
2019-04-21T05:35:42.992Z,53.17
2019-04-21T05:38:17.485Z,51.88
2019-04-21T05:40:38.899Z,49.95
2019-04-21T05:43:21.314Z,48.72
2019-04-21T05:45:53.544Z,47.53
2019-04-21T05:48:39.890Z,46.30
2019-04-21T05:50:53.772Z,44.79
2019-04-21T05:56:03.580Z,42.65
2019-04-21T05:58:34.873Z,41.76
2019-04-21T06:01:28.756Z,40.83
2019-04-21T06:03:54.966Z,40.21
2019-04-21T06:06:26.430Z,39.37
2019-04-21T06:08:53.923Z,38.88
2019-04-21T06:14:02.496Z,38.16
2019-04-21T06:16:36.441Z,37.06
2019-04-21T06:19:22.587Z,36.57
2019-04-21T06:21:38.543Z,35.90
2019-04-21T06:24:20.425Z,35.52
2019-04-21T06:29:28.616Z,34.76
2019-04-21T06:32:27.509Z,34.31
2019-04-21T06:34:49.586Z,33.79
2019-04-21T06:37:34.879Z,33.51
2019-04-21T06:42:14.723Z,32.92
2019-04-21T06:47:36.440Z,32.97
2019-04-21T06:54:56.079Z,32.74
2019-04-21T06:57:29.158Z,32.56
2019-04-21T06:59:57.450Z,32.44
2019-04-21T07:02:49.277Z,32.52
2019-04-21T07:05:09.182Z,32.71
2019-04-21T07:07:43.295Z,32.57
2019-04-21T07:10:14.376Z,32.83
2019-04-21T07:12:43.547Z,32.84
2019-04-21T07:15:25.202Z,33.65
2019-04-21T07:18:05.606Z,32.74
2019-04-21T07:20:31.006Z,32.81
2019-04-21T07:23:11.232Z,32.43
2019-04-21T07:25:39.220Z,32.15
2019-04-21T07:28:10.281Z,32.18
2019-04-21T07:30:44.256Z,31.89
2019-04-21T07:33:33.181Z,32.18
2019-04-21T07:35:45.765Z,31.87
2019-04-21T07:38:11.867Z,31.79
2019-04-21T07:40:39.993Z,32.08
2019-04-21T07:43:07.945Z,31.86
2019-04-21T07:45:41.551Z,31.24
2019-04-21T07:48:36.184Z,31.54
2019-04-21T07:51:11.151Z,31.62
2019-04-21T07:53:52.603Z,31.49
2019-04-21T07:55:59.353Z,30.70
2019-04-21T07:58:47.697Z,31.28
2019-04-21T08:01:18.063Z,30.58
2019-04-21T08:03:46.744Z,30.37
2019-04-21T08:06:12.215Z,30.61
2019-04-21T08:08:41.072Z,30.74
2019-04-21T08:11:09.130Z,30.66
2019-04-21T08:13:48.804Z,30.80
2019-04-21T08:16:19.578Z,31.33
2019-04-21T08:18:45.275Z,30.77
2019-04-21T08:21:11.080Z,30.33
2019-04-21T08:23:43.390Z,30.32
2019-04-21T08:26:17.426Z,29.67
2019-04-21T08:28:49.557Z,30.14
2019-04-21T08:31:25.743Z,29.28
2019-04-21T08:34:08.376Z,28.89
2019-04-21T08:38:48.246Z,28.77
2019-04-21T08:41:18.685Z,28.82
2019-04-21T08:44:05.204Z,28.82
2019-04-21T08:46:20.148Z,28.59
2019-04-21T08:53:53.469Z,28.94
2019-04-21T08:56:21.438Z,29.31
2019-04-21T08:59:02.223Z,29.32
2019-04-21T09:01:36.834Z,29.07
2019-04-21T09:04:15.586Z,29.00
2019-04-21T09:06:58.907Z,28.70
2019-04-21T09:09:16.698Z,28.52
2019-04-21T09:11:40.440Z,29.11
2019-04-21T09:14:15.298Z,28.64
2019-04-21T09:16:44.325Z,29.20
2019-04-21T09:19:20.286Z,28.42
2019-04-21T09:24:18.994Z,28.39
2019-04-21T09:26:41.418Z,28.87
2019-04-21T09:29:07.773Z,28.71
2019-04-21T09:31:33.779Z,28.69
2019-04-21T09:34:02.330Z,28.65
2019-04-21T09:36:35.096Z,28.92
2019-04-21T09:39:06.650Z,28.78
2019-04-21T09:41:29.740Z,28.12
2019-04-21T09:43:59.755Z,28.18
2019-04-21T09:46:34.169Z,27.73
2019-04-21T09:49:06.483Z,27.85
2019-04-21T09:51:33.004Z,27.98
2019-04-21T09:54:08.245Z,27.28
2019-04-21T09:56:43.621Z,27.21
2019-04-21T09:59:11.404Z,27.16
2019-04-21T10:01:52.912Z,27.52
2019-04-21T10:04:05.496Z,28.84
2019-04-21T10:06:33.224Z,27.15
2019-04-21T10:09:04.727Z,27.48
2019-04-21T10:11:33.294Z,26.91
2019-04-21T10:14:03.107Z,26.86
2019-04-21T10:16:36.422Z,25.99
2019-04-21T10:19:05.082Z,26.04
2019-04-21T10:21:33.960Z,26.17
2019-04-21T10:24:02.531Z,24.90
2019-04-21T10:26:31.185Z,25.61
2019-04-21T10:29:08.127Z,25.69
2019-04-21T10:31:30.190Z,24.80
2019-04-21T10:33:58.954Z,24.44
2019-04-21T10:36:27.753Z,25.04
2019-04-21T10:38:58.994Z,23.99
2019-04-21T10:41:27.814Z,24.29
2019-04-21T10:43:56.639Z,24.25
2019-04-21T10:46:26.600Z,23.86
2019-04-21T10:48:56.792Z,24.40
2019-04-21T10:51:25.497Z,24.30
2019-04-21T10:53:55.971Z,26.39
2019-04-21T10:56:32.637Z,26.38
2019-04-21T10:58:56.245Z,25.49
2019-04-21T11:01:27.209Z,25.19
2019-04-21T11:03:58.542Z,25.80
2019-04-21T11:06:28.796Z,24.49
2019-04-21T11:09:01.025Z,24.70
2019-04-21T11:11:28.063Z,24.52
2019-04-21T11:13:56.892Z,24.34
2019-04-21T11:16:26.898Z,24.22
2019-04-21T11:18:56.073Z,23.59
2019-04-21T11:21:25.028Z,24.11
2019-04-21T11:23:54.263Z,23.61
2019-04-21T11:26:24.177Z,23.04
2019-04-21T11:28:52.918Z,23.24
2019-04-21T11:31:22.910Z,23.24
2019-04-21T11:33:51.769Z,23.37
2019-04-21T11:36:21.611Z,22.79
2019-04-21T11:39:06.165Z,23.04
2019-04-21T11:41:23.872Z,23.44
2019-04-21T11:43:53.171Z,24.08
2019-04-21T11:46:22.488Z,22.78
2019-04-21T11:48:52.493Z,22.98
2019-04-21T11:51:21.260Z,23.26
2019-04-21T11:53:51.307Z,22.57
2019-04-21T11:56:20.907Z,22.98
2019-04-21T11:58:49.950Z,23.61
2019-04-21T12:01:18.823Z,22.87
2019-04-21T12:03:47.611Z,22.98
2019-04-21T12:06:17.448Z,22.77
2019-04-21T12:08:49.877Z,23.51
2019-04-21T12:11:17.680Z,23.51
2019-04-21T12:13:47.816Z,22.95
2019-04-21T12:16:17.030Z,22.81
2019-04-21T12:18:47.169Z,22.83
2019-04-21T12:21:15.900Z,22.67
2019-04-21T12:23:44.874Z,22.59
2019-04-21T12:26:14.018Z,23.15
2019-04-21T12:28:43.935Z,22.86
2019-04-21T12:31:14.247Z,22.91
2019-04-21T12:33:45.769Z,23.35
2019-04-21T12:36:15.755Z,22.51
2019-04-21T12:38:53.603Z,22.43
2019-04-21T12:41:15.000Z,22.18
2019-04-21T12:43:44.536Z,22.10
2019-04-21T12:46:13.917Z,22.61
2019-04-21T12:48:44.103Z,22.53
2019-04-21T12:51:13.008Z,22.31
2019-04-21T12:53:41.730Z,22.34
2019-04-21T12:56:11.620Z,22.88
2019-04-21T12:58:41.526Z,22.76
2019-04-21T13:01:10.499Z,22.77
2019-04-21T13:03:39.698Z,23.05
2019-04-21T13:06:09.742Z,22.38
2019-04-21T13:08:45.578Z,23.03
2019-04-21T13:11:09.570Z,21.78
2019-04-21T13:13:39.880Z,22.16
2019-04-21T13:16:09.614Z,21.59
2019-04-21T13:18:39.598Z,22.24
2019-04-21T13:21:08.245Z,22.44
2019-04-21T13:23:37.032Z,22.58
2019-04-21T13:26:06.540Z,22.48
2019-04-21T13:28:37.533Z,22.26
2019-04-21T13:31:06.618Z,22.04
2019-04-21T13:33:35.821Z,22.48
2019-04-21T13:36:05.059Z,22.53
2019-04-21T13:38:42.202Z,22.79
2019-04-21T13:41:22.692Z,23.42
2019-04-21T13:43:41.325Z,23.03
2019-04-21T13:46:11.954Z,23.33
2019-04-21T13:48:42.367Z,23.46
2019-04-21T13:51:11.321Z,23.77
2019-04-21T13:53:41.886Z,24.07
2019-04-21T13:56:10.809Z,23.87
2019-04-21T13:58:40.589Z,23.77
2019-04-21T14:01:09.887Z,23.70
2019-04-21T14:03:39.703Z,23.67
2019-04-21T14:06:08.600Z,23.43
2019-04-21T14:08:40.193Z,23.28
2019-04-21T14:11:07.568Z,23.92
2019-04-21T14:13:36.500Z,25.48
2019-04-21T14:16:06.236Z,25.54
2019-04-21T14:18:34.913Z,24.86
2019-04-21T14:21:05.058Z,24.83
2019-04-21T14:23:40.621Z,25.19
2019-04-21T14:26:08.734Z,25.12
2019-04-21T14:28:40.963Z,25.96
2019-04-21T14:31:10.510Z,25.65
2019-04-21T14:33:42.174Z,26.14
2019-04-21T14:36:12.766Z,25.96
2019-04-21T14:38:45.279Z,26.26
2019-04-21T14:41:22.170Z,26.46
2019-04-21T14:44:02.873Z,26.22
2019-04-21T14:46:37.415Z,26.63
2019-04-21T14:49:17.359Z,26.91
2019-04-21T14:52:03.035Z,27.94
2019-04-21T14:54:34.528Z,27.32
2019-04-21T14:57:11.859Z,27.56
2019-04-21T14:59:44.791Z,27.88
2019-04-21T15:02:20.293Z,28.07
2019-04-21T15:04:55.720Z,28.19
2019-04-21T15:07:27.479Z,28.48
2019-04-21T15:10:04.449Z,28.45
2019-04-21T15:12:31.863Z,28.38
2019-04-21T15:15:33.989Z,28.54
2019-04-21T15:18:04.123Z,29.10
2019-04-21T15:20:42.784Z,29.08
2019-04-21T15:23:12.452Z,28.89
2019-04-21T15:25:41.900Z,29.12
2019-04-21T15:28:11.695Z,29.14
2019-04-21T15:30:42.776Z,29.05
2019-04-21T15:33:12.610Z,29.07
2019-04-21T15:35:47.021Z,29.72
2019-04-21T15:38:18.110Z,29.40
2019-04-21T15:40:58.066Z,29.54
2019-04-21T15:43:30.971Z,29.27
2019-04-21T15:46:00.715Z,29.47
2019-04-21T15:48:30.783Z,29.47
2019-04-21T15:51:03.631Z,29.39
2019-04-21T15:53:37.559Z,28.94
2019-04-21T15:56:17.225Z,29.16
2019-04-21T15:58:56.771Z,29.33
2019-04-21T16:01:28.262Z,29.39
2019-04-21T16:03:59.180Z,29.90
2019-04-21T16:06:27.704Z,29.48
2019-04-21T16:08:58.973Z,29.38
2019-04-21T16:11:28.858Z,29.29
2019-04-21T16:13:59.650Z,29.78
2019-04-21T16:16:33.821Z,29.71
2019-04-21T16:19:12.395Z,29.69
2019-04-21T16:21:44.380Z,29.56
2019-04-21T16:24:12.247Z,29.48
2019-04-21T16:27:03.512Z,29.94
2019-04-21T16:29:31.296Z,30.03
2019-04-21T16:32:07.165Z,30.04
2019-04-21T16:34:47.312Z,29.87
2019-04-21T16:37:17.314Z,30.01
2019-04-21T16:39:51.944Z,30.30
2019-04-21T16:42:20.656Z,30.08
2019-04-21T16:44:54.687Z,30.29
2019-04-21T16:47:30.184Z,30.46
2019-04-21T16:49:58.969Z,30.32
2019-04-21T16:52:34.184Z,30.47
2019-04-21T16:55:16.906Z,30.20
2019-04-21T16:58:00.700Z,30.21
2019-04-21T17:00:59.522Z,30.51
2019-04-21T17:03:28.309Z,30.68
2019-04-21T17:06:13.129Z,30.64
2019-04-21T17:08:43.126Z,30.74
2019-04-21T17:11:31.656Z,31.14
2019-04-21T17:13:58.231Z,31.12
2019-04-21T17:17:13.480Z,30.92
2019-04-21T17:19:25.074Z,31.12
2019-04-21T17:21:47.925Z,31.13
2019-04-21T17:24:16.956Z,31.50
2019-04-21T17:26:51.363Z,31.57
2019-04-21T17:29:20.893Z,31.79
2019-04-21T17:31:50.508Z,31.73
2019-04-21T17:34:27.700Z,31.79
2019-04-21T17:36:55.037Z,32.13
2019-04-21T17:39:24.903Z,32.18
2019-04-21T17:42:12.972Z,32.31
2019-04-21T17:44:35.207Z,32.23
2019-04-21T17:47:13.265Z,32.41
2019-04-21T17:49:37.047Z,32.77
2019-04-21T17:52:25.035Z,32.67
2019-04-21T17:55:09.256Z,33.06
2019-04-21T17:57:57.082Z,33.30
2019-04-21T18:00:52.057Z,33.42
2019-04-21T18:03:01.803Z,33.65
2019-04-21T18:05:37.260Z,33.75
2019-04-21T18:08:07.030Z,33.96
2019-04-21T18:10:39.017Z,33.94
2019-04-21T18:13:01.342Z,34.35
2019-04-21T18:15:44.173Z,34.44
2019-04-21T18:17:57.123Z,34.79
2019-04-21T18:20:46.116Z,35.15
2019-04-21T18:23:52.061Z,35.19
2019-04-21T18:26:35.486Z,35.26
2019-04-21T18:28:55.259Z,35.64
2019-04-21T18:31:27.046Z,35.77
2019-04-21T18:34:04.394Z,35.59
2019-04-21T18:36:38.368Z,35.85
2019-04-21T18:39:27.545Z,36.18
2019-04-21T18:42:04.784Z,36.12
2019-04-21T18:47:16.856Z,36.97
2019-04-21T18:49:35.358Z,37.01
2019-04-21T18:52:19.215Z,36.98
2019-04-21T18:54:59.906Z,37.42
2019-04-21T18:57:22.575Z,37.47
2019-04-21T18:59:46.912Z,37.90
2019-04-21T19:02:22.308Z,38.04
2019-04-21T19:04:53.645Z,38.40
2019-04-21T19:07:37.674Z,38.34
2019-04-21T19:10:22.362Z,38.01
2019-04-21T19:13:09.173Z,38.23
2019-04-21T19:15:12.116Z,38.75
2019-04-21T19:20:31.048Z,38.54
2019-04-21T19:22:57.069Z,40.67
2019-04-21T19:25:31.555Z,38.72
2019-04-21T19:28:02.508Z,38.92
2019-04-21T19:30:46.645Z,39.17
2019-04-21T19:33:03.851Z,39.62
2019-04-21T19:35:27.693Z,39.46
2019-04-21T19:38:04.690Z,41.08
2019-04-21T19:40:52.209Z,40.65
2019-04-21T19:43:30.587Z,40.06
2019-04-21T19:45:56.365Z,39.55
2019-04-21T19:48:28.024Z,39.39
2019-04-21T19:51:04.184Z,39.64
2019-04-21T19:53:32.852Z,39.65
2019-04-21T19:55:47.806Z,39.00
2019-04-21T19:58:20.632Z,39.83
2019-04-21T20:00:53.680Z,40.14
2019-04-21T20:03:24.666Z,39.40
2019-04-21T20:06:04.063Z,40.12
2019-04-21T20:08:37.534Z,39.39
2019-04-21T20:11:18.149Z,39.73
2019-04-21T20:14:12.410Z,39.86
2019-04-21T20:16:21.637Z,40.30
2019-04-21T20:18:38.867Z,40.34
2019-04-21T20:21:04.039Z,40.78
2019-04-21T20:23:39.697Z,40.91
2019-04-21T20:26:08.583Z,41.59
2019-04-21T20:28:49.262Z,41.66
2019-04-21T20:31:23.369Z,41.58
2019-04-21T20:33:59.603Z,42.22
2019-04-21T20:36:26.373Z,42.44
2019-04-21T20:38:49.110Z,42.52
2019-04-21T20:41:33.917Z,42.62
2019-04-21T20:44:03.879Z,42.88
2019-04-21T20:46:35.048Z,43.13
2019-04-21T20:48:59.973Z,43.20
2019-04-21T20:51:35.869Z,43.31
2019-04-21T20:54:01.526Z,44.20
2019-04-21T20:56:34.505Z,43.92
2019-04-21T20:59:07.516Z,44.20
2019-04-21T21:01:34.910Z,44.30
2019-04-21T21:04:01.768Z,44.36
2019-04-21T21:06:36.019Z,45.58
2019-04-21T21:09:07.423Z,45.03
2019-04-21T21:11:43.563Z,45.08
2019-04-21T21:14:12.891Z,45.00
2019-04-21T21:16:46.189Z,44.96
2019-04-21T21:21:40.197Z,45.24
2019-04-21T21:24:15.914Z,45.12
2019-04-21T21:26:52.143Z,45.21
2019-04-21T21:29:11.626Z,45.31
2019-04-21T21:32:04.300Z,45.53
2019-04-21T21:34:28.080Z,45.32
2019-04-21T21:36:55.324Z,45.58
2019-04-21T21:39:36.320Z,45.70
2019-04-21T21:41:48.559Z,45.89
2019-04-21T21:44:17.856Z,45.76
2019-04-21T21:46:53.839Z,45.92
2019-04-21T21:49:27.958Z,46.21
2019-04-21T21:51:56.941Z,46.05
2019-04-21T21:54:15.946Z,46.40
2019-04-21T21:56:44.760Z,46.44
2019-04-21T21:59:20.700Z,46.61
2019-04-21T22:01:50.706Z,46.70
2019-04-21T22:04:23.858Z,46.82
2019-04-21T22:06:55.451Z,47.02
2019-04-21T22:09:18.492Z,47.27
2019-04-21T22:11:48.590Z,47.26
2019-04-21T22:14:26.889Z,47.42
2019-04-21T22:17:08.718Z,47.46
2019-04-21T22:19:37.041Z,47.61
2019-04-21T22:22:09.329Z,47.77
2019-04-21T22:24:35.172Z,47.80
2019-04-21T22:26:52.415Z,47.85
2019-04-21T22:29:21.331Z,47.91
2019-04-21T22:31:52.677Z,47.92
2019-04-21T22:34:27.646Z,48.16
2019-04-21T22:37:01.511Z,48.23
2019-04-21T22:39:42.123Z,48.44
2019-04-21T22:42:01.756Z,48.49
2019-04-21T22:44:22.718Z,48.64
2019-04-21T22:47:02.177Z,48.88
2019-04-21T22:49:23.860Z,49.28
2019-04-21T22:51:53.886Z,49.29
2019-04-21T22:54:28.688Z,49.47
2019-04-21T22:57:02.632Z,49.50
2019-04-21T22:59:26.741Z,49.62
2019-04-21T23:01:55.846Z,49.86
2019-04-21T23:04:36.865Z,50.01
2019-04-21T23:07:02.179Z,50.30
2019-04-21T23:09:26.727Z,50.40
2019-04-21T23:11:56.635Z,50.55
2019-04-21T23:14:26.044Z,50.59
2019-04-21T23:17:04.427Z,50.83
2019-04-21T23:19:44.801Z,51.07
2019-04-21T23:22:18.876Z,51.07
2019-04-21T23:24:54.572Z,51.20
2019-04-21T23:27:16.574Z,51.37
2019-04-21T23:29:58.995Z,51.82
2019-04-21T23:32:19.928Z,51.69
2019-04-21T23:34:37.213Z,51.85
2019-04-21T23:37:11.874Z,52.16
2019-04-21T23:39:37.432Z,52.28
2019-04-21T23:42:06.389Z,52.41
2019-04-21T23:44:41.789Z,52.55
2019-04-21T23:47:10.237Z,52.97
2019-04-21T23:49:49.608Z,52.84
2019-04-21T23:52:10.999Z,52.89
2019-04-21T23:54:38.440Z,53.04
2019-04-21T23:57:14.159Z,53.17
2019-04-21T23:59:46.350Z,53.30
